Time;durP1;ratioP1;P1;durP2;ratioP2;P2;SDS_P1;SDS_P2;PMS_P1;PMS_P2;Temp;Humidity;BMP_temperature;BMP_pressure;BME280_temperature;BME280_humidity;BME280_pressure;Samples;Min_cycle;Max_cycle;Signal;HPM_P1;HPM_P2
2022/01/28 00:05:25;;;;;;;15.38;8.25;;;1.00;99.90;;;;;;5029602;28;20044;-78
2022/01/28 00:07:52;;;;;;;18.13;9.45;;;1.00;99.90;;;;;;5029372;28;20474;-78
2022/01/28 00:10:20;;;;;;;15.27;8.70;;;0.90;99.90;;;;;;5033376;28;20075;-78
2022/01/28 00:15:31;;;;;;;15.13;8.77;;;1.00;99.90;;;;;;5028631;28;20505;-78
2022/01/28 00:39:38;;;;;;;12.73;6.97;;;1.10;99.90;;;;;;5030649;28;20040;-78
2022/01/28 00:42:04;;;;;;;12.88;7.13;;;1.10;99.90;;;;;;5028502;28;20491;-78
2022/01/28 00:44:30;;;;;;;11.45;7.40;;;1.20;99.90;;;;;;5033174;28;20055;-78
2022/01/28 00:46:55;;;;;;;11.90;6.80;;;1.00;99.90;;;;;;5017574;28;20069;-78
2022/01/28 00:49:21;;;;;;;13.38;7.15;;;1.10;99.90;;;;;;5030439;28;20032;-78
2022/01/28 00:51:47;;;;;;;11.48;6.72;;;1.10;99.90;;;;;;5028739;28;20589;-78
2022/01/28 00:54:12;;;;;;;9.88;6.30;;;1.00;99.90;;;;;;5027224;28;20520;-78
2022/01/28 00:56:38;;;;;;;11.30;6.57;;;1.00;99.90;;;;;;5028452;28;20026;-78
2022/01/28 00:59:04;;;;;;;12.18;6.95;;;1.00;99.90;;;;;;5027224;28;20029;-78
2022/01/28 01:01:30;;;;;;;12.77;7.50;;;1.00;99.90;;;;;;5028065;28;20098;-78
2022/01/28 01:04:00;;;;;;;15.20;8.40;;;1.10;99.90;;;;;;5029284;28;20031;-78
2022/01/28 01:06:26;;;;;;;12.50;7.63;;;1.00;99.90;;;;;;5027214;28;20037;-78
2022/01/28 01:08:53;;;;;;;11.55;7.07;;;0.90;99.90;;;;;;5028079;28;20029;-78
2022/01/28 01:11:21;;;;;;;12.55;7.32;;;1.00;99.90;;;;;;5028382;28;20060;-78
2022/01/28 01:13:49;;;;;;;12.25;6.85;;;0.90;99.90;;;;;;5026855;28;20037;-78
2022/01/28 01:16:20;;;;;;;13.15;6.95;;;0.90;99.90;;;;;;5028832;28;20498;-78
2022/01/28 01:19:13;;;;;;;11.25;6.43;;;0.90;99.90;;;;;;5028209;28;20026;-78
2022/01/28 01:21:41;;;;;;;10.77;7.03;;;0.80;99.90;;;;;;5028025;28;20021;-79
2022/01/28 01:24:10;;;;;;;12.48;6.88;;;0.80;99.90;;;;;;5028028;28;20024;-78
2022/01/28 01:26:39;;;;;;;10.75;6.55;;;0.80;99.90;;;;;;5028184;28;20496;-78
2022/01/28 01:29:07;;;;;;;10.88;6.40;;;0.80;99.90;;;;;;5031376;28;20163;-78
2022/01/28 01:31:35;;;;;;;9.98;5.80;;;0.70;99.90;;;;;;5028769;28;20018;-79
2022/01/28 01:36:35;;;;;;;11.15;6.72;;;0.40;99.90;;;;;;5027570;28;20063;-78
2022/01/28 01:39:02;;;;;;;10.60;6.43;;;0.30;99.90;;;;;;5038926;28;20494;-79
2022/01/28 01:41:36;;;;;;;10.32;6.90;;;0.30;99.90;;;;;;5026541;28;20018;-78
2022/01/28 01:52:04;;;;;;;9.93;5.93;;;0.60;99.90;;;;;;5029338;28;20090;-79
2022/01/28 01:54:34;;;;;;;11.00;6.57;;;0.60;99.90;;;;;;5027817;28;20555;-78
2022/01/28 01:57:01;;;;;;;10.15;6.40;;;0.70;99.90;;;;;;5027471;28;20025;-79
2022/01/28 01:59:27;;;;;;;11.05;6.22;;;0.80;99.90;;;;;;5027887;28;20482;-79
2022/01/28 02:01:52;;;;;;;9.15;6.00;;;0.70;99.90;;;;;;5035692;28;20018;-79
2022/01/28 02:04:19;;;;;;;12.65;7.20;;;0.70;99.90;;;;;;5028005;28;20025;-79
2022/01/28 02:06:45;;;;;;;11.45;6.43;;;0.70;99.90;;;;;;5031927;28;20079;-79
2022/01/28 02:09:11;;;;;;;9.60;6.05;;;0.70;99.90;;;;;;5030202;28;20041;-79
2022/01/28 02:11:40;;;;;;;11.18;6.80;;;0.60;99.90;;;;;;5031575;28;20436;-79
2022/01/28 02:14:06;;;;;;;9.45;6.15;;;0.40;99.90;;;;;;5030027;28;20056;-79
2022/01/28 02:16:32;;;;;;;11.45;6.93;;;0.40;99.90;;;;;;5031096;28;20061;-79
2022/01/28 02:18:57;;;;;;;10.93;6.35;;;0.50;99.90;;;;;;5032375;28;20040;-79
2022/01/28 02:21:24;;;;;;;10.48;6.10;;;0.30;99.90;;;;;;5031621;28;20052;-79
2022/01/28 02:23:52;;;;;;;11.43;6.45;;;0.20;99.90;;;;;;5035071;28;20045;-79
2022/01/28 02:26:17;;;;;;;12.00;6.03;;;0.50;99.90;;;;;;5035260;28;20026;-79
2022/01/28 02:28:48;;;;;;;10.60;6.82;;;0.60;99.90;;;;;;5031348;28;20504;-79
2022/01/28 02:31:20;;;;;;;12.70;6.55;;;0.70;99.90;;;;;;5033347;28;20064;-79
2022/01/28 02:33:46;;;;;;;10.07;6.70;;;0.60;99.90;;;;;;5031075;28;20053;-79
2022/01/28 02:36:12;;;;;;;12.18;6.95;;;0.50;99.90;;;;;;5031171;28;20025;-79
2022/01/28 02:38:38;;;;;;;13.45;7.80;;;0.40;99.90;;;;;;5030819;28;20080;-78
2022/01/28 02:41:06;;;;;;;15.43;7.78;;;0.20;99.90;;;;;;5031350;28;20096;-79
2022/01/28 02:44:04;;;;;;;12.10;7.82;;;0.20;99.90;;;;;;5037174;28;20021;-78
2022/01/28 02:46:32;;;;;;;13.07;7.43;;;0.30;99.90;;;;;;5031242;28;20077;-79
2022/01/28 02:49:05;;;;;;;13.05;7.60;;;0.30;99.90;;;;;;5035443;28;20029;-79
2022/01/28 02:51:31;;;;;;;13.95;7.75;;;0.40;99.90;;;;;;5029832;28;20092;-79
2022/01/28 02:54:00;;;;;;;12.50;7.38;;;0.30;99.90;;;;;;5030559;28;20064;-79
2022/01/28 02:58:57;;;;;;;12.67;7.60;;;0.40;99.90;;;;;;5031655;28;20022;-79
2022/01/28 03:01:22;;;;;;;15.82;8.00;;;0.50;99.90;;;;;;5037763;28;20267;-79
2022/01/28 03:03:50;;;;;;;11.25;7.32;;;0.50;99.90;;;;;;5026670;28;20642;-80
2022/01/28 03:06:18;;;;;;;13.30;8.02;;;0.60;99.90;;;;;;5032365;28;20029;-79
2022/01/28 03:08:52;;;;;;;11.57;6.78;;;0.60;99.90;;;;;;5030615;28;20028;-79
2022/01/28 03:16:23;;;;;;;12.95;7.28;;;0.50;99.90;;;;;;5032419;28;20159;-79
2022/01/28 03:23:50;;;;;;;13.88;7.13;;;0.60;99.90;;;;;;5034284;28;20022;-79
2022/01/28 03:26:16;;;;;;;9.75;6.50;;;0.50;99.90;;;;;;5032831;28;20069;-79
2022/01/28 03:28:43;;;;;;;10.27;6.50;;;0.50;99.90;;;;;;5028990;28;20526;-79
2022/01/28 03:31:09;;;;;;;13.57;7.28;;;0.40;99.90;;;;;;5030920;28;20124;-79
2022/01/28 03:33:35;;;;;;;12.98;7.28;;;0.00;99.90;;;;;;5028471;28;20049;-79
2022/01/28 03:36:03;;;;;;;13.18;6.75;;;0.00;99.90;;;;;;5029390;28;20434;-79
2022/01/28 03:38:29;;;;;;;14.73;7.18;;;0.10;99.90;;;;;;5028546;28;20029;-79
2022/01/28 03:40:56;;;;;;;12.98;7.03;;;0.20;99.90;;;;;;5035317;28;20026;-79
2022/01/28 03:43:22;;;;;;;11.70;6.75;;;0.30;99.90;;;;;;5031947;28;20010;-79
2022/01/28 03:45:48;;;;;;;14.10;7.07;;;0.20;99.90;;;;;;5029667;28;20083;-79
2022/01/28 03:48:14;;;;;;;13.57;7.88;;;0.40;99.90;;;;;;5029603;28;20501;-79
2022/01/28 03:50:39;;;;;;;13.48;6.88;;;0.40;99.90;;;;;;5029796;28;20415;-79
2022/01/28 03:53:07;;;;;;;16.75;8.32;;;0.30;99.90;;;;;;5028224;28;20083;-79
2022/01/28 03:55:33;;;;;;;12.23;7.57;;;-0.10;99.90;;;;;;5028776;28;20120;-79
2022/01/28 03:57:59;;;;;;;11.52;6.63;;;0.00;99.90;;;;;;5032864;28;20507;-79
2022/01/28 04:00:29;;;;;;;14.30;8.02;;;0.10;99.90;;;;;;5033169;28;20112;-79
2022/01/28 04:13:31;;;;;;;13.00;7.25;;;0.10;99.90;;;;;;5030353;28;20040;-79
2022/01/28 04:18:23;;;;;;;12.13;7.07;;;-0.20;99.90;;;;;;5029322;28;20380;-79
2022/01/28 04:20:48;;;;;;;11.20;6.82;;;-0.10;99.90;;;;;;5034907;28;20025;-79
2022/01/28 04:23:14;;;;;;;11.00;6.68;;;0.00;99.90;;;;;;5028358;28;20473;-79
2022/01/28 04:25:40;;;;;;;10.07;6.57;;;0.00;99.90;;;;;;5029138;28;20521;-79
2022/01/28 04:28:06;;;;;;;10.68;6.32;;;-0.40;99.90;;;;;;5030862;28;20542;-79
2022/01/28 04:30:31;;;;;;;10.68;6.03;;;-0.30;99.90;;;;;;5028514;28;20048;-79
2022/01/28 04:32:57;;;;;;;15.70;7.10;;;-0.40;99.90;;;;;;5027470;28;20029;-79
2022/01/28 04:35:24;;;;;;;12.40;7.07;;;-0.50;99.90;;;;;;5028598;28;20406;-79
2022/01/28 04:40:41;;;;;;;11.43;7.07;;;-0.40;99.90;;;;;;5033518;28;20040;-79
2022/01/28 04:43:15;;;;;;;11.52;6.15;;;-0.40;99.90;;;;;;5041934;28;20028;-79
2022/01/28 04:46:08;;;;;;;11.07;6.85;;;-0.20;99.90;;;;;;5030060;28;20506;-79
2022/01/28 04:48:47;;;;;;;12.80;6.60;;;-0.30;99.90;;;;;;5028688;28;20061;-79
2022/01/28 04:51:24;;;;;;;11.27;6.55;;;-0.10;99.90;;;;;;5026343;28;20041;-79
2022/01/28 04:56:41;;;;;;;13.23;6.63;;;0.00;99.90;;;;;;5028199;28;20083;-79
2022/01/28 05:15:33;;;;;;;12.98;7.13;;;-0.50;99.90;;;;;;5021030;28;20035;-79
2022/01/28 05:24:44;;;;;;;18.65;9.77;;;-1.10;99.90;;;;;;5006237;28;20526;-79
2022/01/28 05:26:27;;;;;;;19.98;9.18;;;-0.90;99.90;;;;;;4998705;28;20042;-79
2022/01/28 05:28:53;;;;;;;19.83;9.15;;;-0.90;99.90;;;;;;5006065;28;20065;-79
2022/01/28 05:31:20;;;;;;;17.40;9.27;;;-0.90;99.90;;;;;;5007953;28;20038;-79
2022/01/28 05:33:47;;;;;;;17.65;9.18;;;-1.00;99.90;;;;;;5005631;28;20029;-79
2022/01/28 05:36:13;;;;;;;18.52;10.32;;;-0.90;99.90;;;;;;4989488;28;20443;-78
2022/01/28 05:38:39;;;;;;;20.50;9.63;;;-1.10;99.90;;;;;;5010516;28;20465;-79
2022/01/28 05:41:04;;;;;;;18.65;10.13;;;-1.10;99.90;;;;;;5008260;28;20026;-79
2022/01/28 05:43:30;;;;;;;18.90;9.63;;;-1.00;99.90;;;;;;5010729;28;20026;-79
2022/01/28 05:45:56;;;;;;;19.02;9.82;;;-1.10;99.90;;;;;;5010629;28;20547;-79
2022/01/28 05:48:22;;;;;;;21.95;10.57;;;-1.10;99.90;;;;;;5009534;28;20037;-79
2022/01/28 05:50:48;;;;;;;20.00;9.52;;;-1.30;99.90;;;;;;5009484;28;20570;-79
2022/01/28 05:53:14;;;;;;;19.05;10.57;;;-1.10;99.90;;;;;;5009842;28;20037;-79
2022/01/28 05:55:39;;;;;;;19.48;10.38;;;-1.10;99.90;;;;;;5009958;28;20034;-79
2022/01/28 05:58:05;;;;;;;18.92;9.20;;;-1.10;99.90;;;;;;5026294;28;20038;-80
2022/01/28 06:00:31;;;;;;;17.63;8.65;;;-1.00;99.90;;;;;;5030042;28;20041;-79
2022/01/28 06:02:57;;;;;;;18.08;8.90;;;-0.80;99.90;;;;;;5031230;28;20049;-79
2022/01/28 06:05:29;;;;;;;17.92;9.32;;;-0.80;99.90;;;;;;5022358;28;20514;-79
2022/01/28 06:07:55;;;;;;;14.80;7.35;;;-0.80;99.90;;;;;;5040009;28;20037;-79
2022/01/28 06:10:21;;;;;;;13.60;7.85;;;-0.80;99.90;;;;;;5038816;28;20497;-79
2022/01/28 06:12:49;;;;;;;16.77;8.82;;;-0.80;99.90;;;;;;5032695;28;20447;-79
2022/01/28 06:15:15;;;;;;;17.40;8.95;;;-0.90;99.90;;;;;;5035806;28;20037;-79
2022/01/28 06:17:41;;;;;;;17.02;8.75;;;-1.00;99.90;;;;;;5031176;28;20466;-79
2022/01/28 06:20:09;;;;;;;19.20;8.15;;;-0.90;99.90;;;;;;5031916;28;20108;-79
2022/01/28 06:22:42;;;;;;;16.75;7.80;;;-0.80;99.90;;;;;;5031953;28;20021;-79
2022/01/28 06:25:10;;;;;;;17.85;8.63;;;-0.70;99.90;;;;;;5038658;28;20521;-79
2022/01/28 06:27:36;;;;;;;15.07;8.55;;;-0.80;99.90;;;;;;5033812;28;20064;-79
2022/01/28 06:30:04;;;;;;;17.40;8.23;;;-0.70;99.90;;;;;;5030416;28;20037;-79
2022/01/28 06:32:31;;;;;;;17.90;7.85;;;-0.70;99.90;;;;;;5036782;28;20017;-79
2022/01/28 06:35:00;;;;;;;14.90;7.72;;;-0.60;99.90;;;;;;5019842;28;20589;-79
2022/01/28 06:37:26;;;;;;;17.80;7.63;;;-0.70;99.90;;;;;;5031632;28;20040;-79
2022/01/28 06:39:52;;;;;;;13.25;6.80;;;-0.60;99.90;;;;;;5030926;28;20033;-79
2022/01/28 06:42:17;;;;;;;13.90;7.75;;;-0.70;99.90;;;;;;5031174;28;20379;-79
2022/01/28 06:44:43;;;;;;;15.35;7.97;;;-0.60;99.90;;;;;;5031266;28;20030;-79
2022/01/28 06:47:10;;;;;;;13.70;6.85;;;-0.40;99.90;;;;;;5030488;28;20564;-79
2022/01/28 06:49:37;;;;;;;14.90;8.55;;;-0.20;99.90;;;;;;5031387;28;20025;-79
2022/01/28 06:52:04;;;;;;;11.18;6.25;;;-0.20;99.90;;;;;;5032629;28;20100;-79
2022/01/28 06:54:30;;;;;;;10.30;5.85;;;-0.10;99.90;;;;;;5030647;28;20034;-79
2022/01/28 06:56:56;;;;;;;10.50;5.72;;;-0.40;99.90;;;;;;5032487;28;20056;-79
2022/01/28 06:59:21;;;;;;;11.98;6.40;;;-0.30;99.90;;;;;;5031080;28;20021;-79
2022/01/28 07:01:47;;;;;;;9.88;5.82;;;-0.20;99.90;;;;;;5030946;28;21692;-79
2022/01/28 07:04:14;;;;;;;10.10;5.53;;;0.00;99.90;;;;;;5019460;28;20030;-79
2022/01/28 07:06:39;;;;;;;10.65;5.82;;;0.00;99.90;;;;;;5028852;28;20064;-79
2022/01/28 07:09:07;;;;;;;12.65;6.75;;;-0.10;99.90;;;;;;5030327;28;20029;-79
2022/01/28 07:11:33;;;;;;;12.48;6.35;;;-0.40;99.90;;;;;;5030835;28;20026;-79
2022/01/28 07:13:58;;;;;;;10.20;5.50;;;-0.40;99.90;;;;;;5036261;28;20037;-79
2022/01/28 07:16:24;;;;;;;13.90;6.25;;;-0.30;99.90;;;;;;5033095;28;20401;-79
2022/01/28 07:18:50;;;;;;;14.95;6.60;;;-0.40;99.90;;;;;;5030180;28;20406;-79
2022/01/28 07:21:15;;;;;;;12.98;7.20;;;-0.40;99.90;;;;;;5030130;28;20101;-79
2022/01/28 07:23:41;;;;;;;12.27;6.15;;;-0.40;99.90;;;;;;5028715;28;20465;-79
2022/01/28 07:26:06;;;;;;;13.70;6.25;;;-0.20;99.90;;;;;;5038859;28;20104;-79
2022/01/28 07:28:34;;;;;;;13.75;6.72;;;-0.30;99.90;;;;;;5036289;28;20042;-79
2022/01/28 07:31:00;;;;;;;16.92;6.75;;;-0.20;99.90;;;;;;5034341;28;20151;-79
2022/01/28 07:33:26;;;;;;;11.35;6.25;;;-0.30;99.90;;;;;;5030252;28;20112;-79
2022/01/28 07:35:51;;;;;;;12.95;6.80;;;-0.30;99.90;;;;;;5032296;28;20037;-79
2022/01/28 07:38:17;;;;;;;13.43;5.85;;;-0.30;99.90;;;;;;5030510;28;20060;-78
2022/01/28 07:40:43;;;;;;;11.77;5.68;;;-0.20;99.90;;;;;;5030468;28;20017;-78
2022/01/28 07:43:08;;;;;;;9.93;6.18;;;-0.20;99.90;;;;;;5028313;28;20191;-79
2022/01/28 07:45:34;;;;;;;10.20;5.68;;;0.00;99.90;;;;;;5029626;28;20087;-78
2022/01/28 07:48:00;;;;;;;13.13;6.32;;;0.00;99.90;;;;;;5027950;28;20034;-79
2022/01/28 07:50:26;;;;;;;12.52;5.45;;;0.10;99.90;;;;;;5034670;28;20453;-79
2022/01/28 07:52:51;;;;;;;11.80;5.60;;;0.20;99.90;;;;;;5029728;28;20029;-79
2022/01/28 07:55:17;;;;;;;14.20;7.13;;;0.20;99.90;;;;;;5030983;28;20510;-79
2022/01/28 07:57:43;;;;;;;12.68;6.20;;;0.00;99.90;;;;;;5029553;28;20030;-79
2022/01/28 08:00:11;;;;;;;11.85;6.15;;;-0.10;99.90;;;;;;5028234;28;20036;-79
2022/01/28 08:02:37;;;;;;;14.07;6.82;;;0.00;99.90;;;;;;5028922;28;20160;-79
2022/01/28 08:05:03;;;;;;;14.93;7.10;;;0.10;99.90;;;;;;5029335;28;20159;-79
2022/01/28 08:07:29;;;;;;;11.20;6.10;;;0.00;99.90;;;;;;5029392;28;20030;-79
2022/01/28 08:09:55;;;;;;;10.82;5.95;;;0.10;99.90;;;;;;5041941;28;20033;-79
2022/01/28 08:12:21;;;;;;;9.65;5.40;;;0.20;99.90;;;;;;5029553;28;20037;-79
2022/01/28 08:14:47;;;;;;;13.40;6.57;;;0.10;99.90;;;;;;5029315;28;20021;-79
2022/01/28 08:17:13;;;;;;;15.45;6.70;;;0.10;99.90;;;;;;5029664;28;20072;-79
2022/01/28 08:19:39;;;;;;;12.68;6.05;;;0.20;99.90;;;;;;5029527;28;20484;-78
2022/01/28 08:22:05;;;;;;;12.90;6.85;;;0.20;99.90;;;;;;5038623;28;20225;-79
2022/01/28 08:24:31;;;;;;;12.90;6.85;;;0.20;99.90;;;;;;5032159;28;20449;-83
2022/01/28 08:26:56;;;;;;;13.68;7.00;;;0.10;99.90;;;;;;5036834;28;20402;-83
2022/01/28 08:29:22;;;;;;;13.10;6.82;;;0.20;99.90;;;;;;5030512;28;20094;-82
2022/01/28 08:31:48;;;;;;;13.52;6.55;;;0.30;99.90;;;;;;5028930;28;20200;-82
2022/01/28 08:34:14;;;;;;;11.38;5.70;;;0.30;99.90;;;;;;5026075;28;20112;-82
2022/01/28 08:36:40;;;;;;;11.73;6.38;;;0.40;99.90;;;;;;5026509;28;20025;-82
2022/01/28 08:39:06;;;;;;;9.85;5.70;;;0.40;99.90;;;;;;5027245;28;20108;-83
2022/01/28 08:41:35;;;;;;;16.17;6.40;;;0.60;99.90;;;;;;5017468;28;20052;-83
2022/01/28 08:44:01;;;;;;;10.32;6.10;;;0.70;99.90;;;;;;5028927;28;20498;-82
2022/01/28 08:46:27;;;;;;;13.43;6.70;;;0.60;99.90;;;;;;5030516;28;20045;-82
2022/01/28 08:48:52;;;;;;;12.50;7.38;;;0.50;99.90;;;;;;5028764;28;20450;-82
2022/01/28 08:51:18;;;;;;;12.00;6.40;;;0.40;99.90;;;;;;5033784;28;20076;-83
2022/01/28 08:53:44;;;;;;;14.25;7.40;;;0.60;99.90;;;;;;5028679;28;20021;-82
2022/01/28 08:56:10;;;;;;;13.68;6.38;;;0.60;99.90;;;;;;5028054;28;20457;-83
2022/01/28 08:58:35;;;;;;;10.68;6.13;;;0.60;99.90;;;;;;5029092;28;20100;-82
2022/01/28 09:01:02;;;;;;;13.27;7.63;;;0.70;99.90;;;;;;5027414;28;20598;-82
2022/01/28 09:03:28;;;;;;;14.63;7.13;;;0.60;99.90;;;;;;5025937;28;20490;-82
2022/01/28 09:05:53;;;;;;;13.88;6.78;;;0.70;99.90;;;;;;5028032;28;20037;-81
2022/01/28 09:08:19;;;;;;;14.55;6.65;;;0.70;99.90;;;;;;5034932;28;20514;-83
2022/01/28 09:10:56;;;;;;;14.10;7.47;;;0.70;99.90;;;;;;5029524;28;20096;-83
2022/01/28 09:13:24;;;;;;;15.05;7.15;;;0.80;99.90;;;;;;5030418;28;20474;-83
2022/01/28 09:15:51;;;;;;;14.75;7.03;;;0.80;99.90;;;;;;5028308;28;20064;-83
2022/01/28 09:18:18;;;;;;;13.88;6.53;;;0.90;99.90;;;;;;5026462;28;20559;-83
2022/01/28 09:20:44;;;;;;;13.73;6.97;;;1.10;99.90;;;;;;5028426;28;20029;-83
2022/01/28 09:23:09;;;;;;;17.88;8.70;;;1.10;99.90;;;;;;5027067;28;20026;-83
2022/01/28 09:25:35;;;;;;;17.88;8.77;;;1.00;99.90;;;;;;5035260;28;20045;-82
2022/01/28 09:28:02;;;;;;;19.88;8.85;;;1.10;99.90;;;;;;5030331;28;20096;-83
2022/01/28 09:30:30;;;;;;;13.68;8.57;;;1.10;99.90;;;;;;5032055;28;20053;-82
2022/01/28 09:32:57;;;;;;;16.00;7.53;;;1.10;99.90;;;;;;5027903;28;20018;-82
2022/01/28 09:35:23;;;;;;;15.10;8.05;;;1.00;99.90;;;;;;5028219;28;20033;-82
2022/01/28 09:37:49;;;;;;;16.63;8.75;;;1.10;99.90;;;;;;5027699;28;20037;-82
2022/01/28 09:40:15;;;;;;;16.92;8.25;;;1.20;99.90;;;;;;5028258;28;20597;-82
2022/01/28 09:42:47;;;;;;;15.82;8.63;;;1.30;99.90;;;;;;5029117;28;20112;-82
2022/01/28 09:45:20;;;;;;;31.75;13.50;;;1.30;99.90;;;;;;5027596;28;20084;-82
2022/01/28 09:47:46;;;;;;;26.63;12.10;;;1.20;99.90;;;;;;5030144;28;20028;-81
2022/01/28 09:50:14;;;;;;;23.67;12.00;;;1.20;99.90;;;;;;5033413;28;20030;-82
2022/01/28 09:52:40;;;;;;;26.15;11.52;;;1.30;99.90;;;;;;5027994;28;20026;-82
2022/01/28 09:55:06;;;;;;;22.15;10.77;;;1.50;99.90;;;;;;5028826;28;20061;-82
2022/01/28 09:57:32;;;;;;;19.27;10.40;;;1.50;99.90;;;;;;5026334;28;20565;-81
2022/01/28 09:59:58;;;;;;;20.65;10.57;;;1.50;99.90;;;;;;5026446;28;20073;-81
2022/01/28 10:03:04;;;;;;;18.52;9.43;;;1.50;99.90;;;;;;5027349;28;20025;-81
2022/01/28 10:05:41;;;;;;;23.02;10.30;;;1.40;99.90;;;;;;5024653;28;20033;-82
2022/01/28 10:08:07;;;;;;;21.05;11.15;;;1.50;99.90;;;;;;5018547;28;20029;-82
2022/01/28 10:10:43;;;;;;;20.40;9.27;;;1.60;99.90;;;;;;5031986;28;20029;-80
2022/01/28 10:13:17;;;;;;;18.08;8.85;;;1.70;99.90;;;;;;5027198;28;20041;-80
2022/01/28 10:16:01;;;;;;;22.20;9.52;;;1.70;99.90;;;;;;5026139;28;20032;-80
2022/01/28 10:18:55;;;;;;;19.73;10.00;;;1.60;99.90;;;;;;5025905;28;20530;-80
2022/01/28 10:21:20;;;;;;;23.15;11.93;;;1.60;99.90;;;;;;5026247;28;20490;-81
2022/01/28 10:24:17;;;;;;;24.92;11.77;;;1.60;99.90;;;;;;5028883;28;20052;-81
2022/01/28 10:26:53;;;;;;;19.05;10.75;;;1.60;99.90;;;;;;5029051;28;20021;-81
2022/01/28 10:29:27;;;;;;;20.15;11.57;;;1.70;99.90;;;;;;5030239;28;20037;-81
2022/01/28 10:32:01;;;;;;;20.25;10.18;;;1.80;99.90;;;;;;5030983;28;20025;-81
2022/01/28 10:34:34;;;;;;;18.55;9.82;;;2.00;99.90;;;;;;5048117;28;20020;-80
2022/01/28 10:37:28;;;;;;;19.67;10.65;;;2.00;99.90;;;;;;5037475;28;20037;-80
2022/01/28 10:40:06;;;;;;;17.75;9.45;;;2.00;99.90;;;;;;5033685;28;20643;-81
2022/01/28 10:42:41;;;;;;;19.27;8.32;;;2.10;99.90;;;;;;5030939;28;20025;-81
2022/01/28 10:45:16;;;;;;;12.82;7.22;;;2.10;99.90;;;;;;5024260;28;20124;-81
2022/01/28 10:47:43;;;;;;;13.55;8.18;;;2.10;99.90;;;;;;5034955;28;20065;-81
2022/01/28 10:50:37;;;;;;;12.27;7.30;;;2.20;99.90;;;;;;5034773;28;20091;-81
2022/01/28 10:53:08;;;;;;;12.73;7.07;;;2.20;99.90;;;;;;5030634;28;20083;-81
2022/01/28 10:55:37;;;;;;;13.73;7.10;;;2.20;99.90;;;;;;5030389;28;20568;-80
2022/01/28 10:58:11;;;;;;;17.27;7.25;;;2.20;99.90;;;;;;5030496;28;20025;-81
2022/01/28 11:00:40;;;;;;;11.43;6.45;;;2.20;99.90;;;;;;5030522;28;20030;-80
2022/01/28 11:03:08;;;;;;;12.75;6.38;;;2.30;99.90;;;;;;5029313;28;20517;-80
2022/01/28 11:05:35;;;;;;;10.50;5.63;;;2.30;99.90;;;;;;5029645;28;20183;-81
2022/01/28 11:08:03;;;;;;;12.93;5.97;;;2.30;99.90;;;;;;5034946;28;20032;-80
2022/01/28 11:10:30;;;;;;;13.93;7.85;;;2.30;99.90;;;;;;5034583;28;20071;-81
2022/01/28 11:12:58;;;;;;;11.75;6.30;;;2.20;99.90;;;;;;5031409;28;20025;-80
2022/01/28 11:15:24;;;;;;;13.68;6.93;;;2.20;99.90;;;;;;5028769;28;20037;-80
2022/01/28 11:17:51;;;;;;;12.57;6.97;;;2.30;99.90;;;;;;5029144;28;20025;-80
2022/01/28 11:20:23;;;;;;;11.73;6.30;;;2.40;99.90;;;;;;5027094;28;20036;-79
2022/01/28 11:22:52;;;;;;;14.90;7.13;;;2.40;99.90;;;;;;5030532;28;20553;-80
2022/01/28 11:25:46;;;;;;;14.73;7.05;;;2.50;99.90;;;;;;5033866;28;20116;-79
2022/01/28 11:28:13;;;;;;;10.82;6.07;;;2.40;99.90;;;;;;5029165;28;20045;-80
2022/01/28 11:30:50;;;;;;;11.98;6.43;;;2.50;99.90;;;;;;5031997;28;20025;-79
2022/01/28 11:33:18;;;;;;;11.68;6.05;;;2.60;99.90;;;;;;5029667;28;20033;-80
2022/01/28 11:35:46;;;;;;;12.32;6.57;;;2.70;99.90;;;;;;5027306;28;20049;-79
2022/01/28 11:38:24;;;;;;;13.80;6.30;;;2.60;99.90;;;;;;5029650;28;20021;-79
2022/01/28 11:41:05;;;;;;;11.32;6.18;;;2.60;99.90;;;;;;5027893;28;20037;-80
2022/01/28 11:43:33;;;;;;;11.95;6.30;;;2.70;99.90;;;;;;5027332;28;20056;-79
2022/01/28 11:46:19;;;;;;;9.10;5.15;;;2.60;99.90;;;;;;5030455;28;20049;-80
2022/01/28 11:48:51;;;;;;;13.65;6.75;;;2.60;99.90;;;;;;5029772;28;20033;-79
2022/01/28 11:51:18;;;;;;;13.05;7.07;;;2.60;99.90;;;;;;5029333;28;20037;-80
2022/01/28 11:53:58;;;;;;;12.85;6.82;;;2.60;99.90;;;;;;5028303;28;20036;-79
2022/01/28 11:56:24;;;;;;;11.18;6.20;;;2.70;99.90;;;;;;5028096;28;20033;-79
2022/01/28 11:59:02;;;;;;;13.05;6.90;;;2.70;99.90;;;;;;5029846;28;20052;-79
2022/01/28 12:01:40;;;;;;;11.13;5.95;;;2.80;99.90;;;;;;5027679;28;20024;-79
2022/01/28 12:04:25;;;;;;;13.50;6.38;;;2.90;99.90;;;;;;5030098;28;20052;-79
2022/01/28 12:06:54;;;;;;;12.50;6.10;;;2.80;99.90;;;;;;5027827;28;20025;-79
2022/01/28 12:09:19;;;;;;;14.73;7.90;;;2.90;99.90;;;;;;5033178;28;20040;-80
2022/01/28 12:11:45;;;;;;;20.80;10.65;;;2.70;99.90;;;;;;5040393;28;20410;-80
2022/01/28 12:14:13;;;;;;;21.42;11.73;;;2.70;99.90;;;;;;5029655;28;20052;-80
2022/01/28 12:16:43;;;;;;;26.27;13.27;;;2.70;99.90;;;;;;5030251;28;20115;-79
2022/01/28 12:19:19;;;;;;;25.92;12.85;;;2.60;99.90;;;;;;5030387;28;20056;-79
2022/01/28 12:22:10;;;;;;;23.23;11.10;;;2.80;99.90;;;;;;5027315;28;20110;-79
2022/01/28 12:24:37;;;;;;;21.63;11.03;;;2.90;99.90;;;;;;5028287;28;20013;-80
2022/01/28 12:27:13;;;;;;;20.27;9.98;;;3.00;99.90;;;;;;5027869;28;20028;-79
2022/01/28 12:29:47;;;;;;;16.75;8.55;;;2.90;99.90;;;;;;5027477;28;20029;-79
2022/01/28 12:32:19;;;;;;;17.52;8.95;;;3.00;99.90;;;;;;5029646;28;20075;-80
2022/01/28 12:34:46;;;;;;;16.92;8.40;;;2.90;99.90;;;;;;5023280;28;20029;-79
2022/01/28 12:37:13;;;;;;;16.13;7.32;;;3.00;99.90;;;;;;5029207;28;20022;-79
2022/01/28 12:39:44;;;;;;;12.20;7.80;;;3.00;99.90;;;;;;5027451;28;20026;-79
2022/01/28 12:42:33;;;;;;;15.90;7.72;;;3.10;99.90;;;;;;5027751;28;20035;-79
2022/01/28 12:44:59;;;;;;;14.40;7.50;;;3.10;99.90;;;;;;5033445;28;20033;-79
2022/01/28 12:47:26;;;;;;;13.88;7.40;;;3.10;99.90;;;;;;5031355;28;20044;-79
2022/01/28 12:49:56;;;;;;;13.43;7.43;;;3.10;99.90;;;;;;5028474;28;20030;-79
2022/01/28 12:52:22;;;;;;;13.77;8.23;;;3.00;99.90;;;;;;5030719;28;20068;-79
2022/01/28 12:54:48;;;;;;;18.33;8.35;;;3.10;99.90;;;;;;5028563;28;20158;-79
2022/01/28 12:57:16;;;;;;;18.67;9.10;;;2.90;99.90;;;;;;5028808;28;20026;-79
2022/01/28 12:59:45;;;;;;;18.75;9.52;;;2.90;99.90;;;;;;5028479;28;20021;-79
2022/01/28 13:02:11;;;;;;;17.20;9.50;;;2.70;99.90;;;;;;5028780;28;20021;-80
2022/01/28 13:05:11;;;;;;;25.02;10.48;;;2.70;99.90;;;;;;5028818;28;20494;-79
2022/01/28 13:10:20;;;;;;;23.45;10.52;;;2.80;99.90;;;;;;5030426;28;20041;-80
2022/01/28 13:12:46;;;;;;;21.05;10.98;;;2.70;99.90;;;;;;5029037;28;20022;-80
2022/01/28 13:15:13;;;;;;;24.67;11.32;;;2.80;99.90;;;;;;5028030;28;20033;-79
2022/01/28 13:17:50;;;;;;;23.55;11.88;;;2.80;99.90;;;;;;5027590;28;20025;-79
2022/01/28 13:20:16;;;;;;;21.00;10.13;;;2.80;99.90;;;;;;5028155;28;20037;-79
2022/01/28 13:22:47;;;;;;;20.50;9.95;;;2.80;99.90;;;;;;5034533;28;20025;-79
2022/01/28 13:25:17;;;;;;;23.23;11.77;;;2.80;99.90;;;;;;5032353;28;20038;-79
2022/01/28 13:27:49;;;;;;;22.08;11.57;;;2.70;99.90;;;;;;5029977;28;20028;-79
2022/01/28 13:30:19;;;;;;;22.52;10.98;;;2.70;99.90;;;;;;5025982;28;20041;-79
2022/01/28 13:32:49;;;;;;;24.48;11.65;;;2.90;99.90;;;;;;5028278;28;20025;-80
2022/01/28 13:35:23;;;;;;;19.33;10.43;;;3.00;99.90;;;;;;5026631;28;20506;-79
2022/01/28 13:37:51;;;;;;;21.30;11.00;;;3.00;99.90;;;;;;5027712;28;20031;-79
2022/01/28 13:40:26;;;;;;;20.48;9.80;;;3.00;99.90;;;;;;5035112;28;20033;-79
2022/01/28 13:43:05;;;;;;;22.45;10.82;;;3.00;99.90;;;;;;5028138;28;20032;-79
2022/01/28 13:45:55;;;;;;;20.92;10.38;;;3.00;99.90;;;;;;5023196;28;20046;-80
2022/01/28 13:48:34;;;;;;;21.17;9.60;;;3.00;99.90;;;;;;5030720;28;20068;-79
2022/01/28 13:51:15;;;;;;;23.88;11.05;;;3.00;99.90;;;;;;5027642;28;20173;-79
2022/01/28 13:56:35;;;;;;;21.10;8.65;;;2.90;99.90;;;;;;5028199;28;20037;-79
2022/01/28 13:59:08;;;;;;;23.58;10.48;;;2.90;99.90;;;;;;5030336;28;20036;-80
2022/01/28 14:01:35;;;;;;;22.00;9.82;;;2.90;99.90;;;;;;5037884;28;20070;-80
2022/01/28 14:04:04;;;;;;;21.35;10.05;;;2.90;99.90;;;;;;5032675;28;20056;-79
2022/01/28 14:06:34;;;;;;;21.48;10.30;;;2.90;99.90;;;;;;5032684;28;20553;-79
2022/01/28 14:09:10;;;;;;;19.40;9.77;;;2.90;99.90;;;;;;5025780;28;20071;-79
2022/01/28 14:11:44;;;;;;;19.05;9.32;;;3.00;99.90;;;;;;5030501;28;20033;-80
2022/01/28 14:14:29;;;;;;;20.65;8.57;;;3.00;99.90;;;;;;5031920;28;20036;-79
2022/01/28 14:16:59;;;;;;;22.52;10.48;;;3.10;99.90;;;;;;5031907;28;20029;-79
2022/01/28 14:19:27;;;;;;;18.08;9.10;;;3.00;99.90;;;;;;5032042;28;20029;-79
2022/01/28 14:21:53;;;;;;;21.38;9.52;;;2.90;99.90;;;;;;5031703;28;20478;-80
2022/01/28 14:24:21;;;;;;;20.10;8.80;;;3.00;99.90;;;;;;5035260;28;20040;-80
2022/01/28 14:32:15;;;;;;;18.33;9.55;;;3.00;99.90;;;;;;5010723;28;20071;-80
2022/01/28 14:34:42;;;;;;;18.98;9.10;;;3.10;99.90;;;;;;4995343;28;20056;-80
2022/01/28 14:37:08;;;;;;;17.13;8.88;;;3.10;99.90;;;;;;5027274;28;20502;-79